sensor_id;sensor_type;location;lat;lon;timestamp;P1;durP1;ratioP1;P2;durP2;ratioP2
84476;SDS011;74700;43.228;0.108;2023-12-22T00:02:04;66.88;;;8.90;;
84476;SDS011;74700;43.228;0.108;2023-12-22T00:04:30;53.17;;;8.35;;
84476;SDS011;74700;43.228;0.108;2023-12-22T00:06:56;59.15;;;9.48;;
84476;SDS011;74700;43.228;0.108;2023-12-22T00:09:22;62.17;;;8.90;;
84476;SDS011;74700;43.228;0.108;2023-12-22T00:11:48;64.60;;;10.73;;
84476;SDS011;74700;43.228;0.108;2023-12-22T00:14:14;60.45;;;9.30;;
84476;SDS011;74700;43.228;0.108;2023-12-22T00:16:40;53.85;;;8.23;;
84476;SDS011;74700;43.228;0.108;2023-12-22T00:19:06;43.65;;;7.03;;
84476;SDS011;74700;43.228;0.108;2023-12-22T00:21:32;59.00;;;8.75;;
84476;SDS011;74700;43.228;0.108;2023-12-22T00:23:58;36.50;;;7.35;;
84476;SDS011;74700;43.228;0.108;2023-12-22T00:26:24;59.40;;;8.27;;
84476;SDS011;74700;43.228;0.108;2023-12-22T00:28:50;53.70;;;7.97;;
84476;SDS011;74700;43.228;0.108;2023-12-22T00:31:16;57.78;;;8.52;;
84476;SDS011;74700;43.228;0.108;2023-12-22T00:33:43;58.08;;;8.20;;
84476;SDS011;74700;43.228;0.108;2023-12-22T00:36:09;49.40;;;8.13;;
84476;SDS011;74700;43.228;0.108;2023-12-22T00:38:35;49.58;;;8.70;;
84476;SDS011;74700;43.228;0.108;2023-12-22T00:41:01;56.45;;;9.02;;
84476;SDS011;74700;43.228;0.108;2023-12-22T00:43:27;49.25;;;7.18;;
84476;SDS011;74700;43.228;0.108;2023-12-22T00:45:53;56.03;;;9.27;;
84476;SDS011;74700;43.228;0.108;2023-12-22T00:48:21;49.28;;;7.70;;
84476;SDS011;74700;43.228;0.108;2023-12-22T00:50:47;47.28;;;7.80;;
84476;SDS011;74700;43.228;0.108;2023-12-22T00:53:13;48.00;;;7.55;;
84476;SDS011;74700;43.228;0.108;2023-12-22T00:55:39;47.20;;;7.82;;
84476;SDS011;74700;43.228;0.108;2023-12-22T00:58:05;51.53;;;7.82;;
84476;SDS011;74700;43.228;0.108;2023-12-22T01:00:31;41.97;;;6.25;;
84476;SDS011;74700;43.228;0.108;2023-12-22T01:02:57;42.17;;;6.82;;
84476;SDS011;74700;43.228;0.108;2023-12-22T01:05:23;36.83;;;6.47;;
84476;SDS011;74700;43.228;0.108;2023-12-22T01:07:49;37.38;;;6.03;;
84476;SDS011;74700;43.228;0.108;2023-12-22T01:10:15;50.00;;;6.78;;
84476;SDS011;74700;43.228;0.108;2023-12-22T01:12:41;33.13;;;6.13;;
84476;SDS011;74700;43.228;0.108;2023-12-22T01:15:07;28.60;;;5.78;;
84476;SDS011;74700;43.228;0.108;2023-12-22T01:17:33;26.60;;;5.05;;
84476;SDS011;74700;43.228;0.108;2023-12-22T01:19:59;33.95;;;5.50;;
84476;SDS011;74700;43.228;0.108;2023-12-22T01:22:25;35.35;;;5.85;;
84476;SDS011;74700;43.228;0.108;2023-12-22T01:24:51;21.23;;;4.38;;
84476;SDS011;74700;43.228;0.108;2023-12-22T01:27:17;34.13;;;5.05;;
84476;SDS011;74700;43.228;0.108;2023-12-22T01:29:44;21.65;;;3.83;;
84476;SDS011;74700;43.228;0.108;2023-12-22T01:32:10;29.38;;;4.20;;
84476;SDS011;74700;43.228;0.108;2023-12-22T01:34:36;24.90;;;4.28;;
84476;SDS011;74700;43.228;0.108;2023-12-22T01:37:02;16.65;;;3.80;;
84476;SDS011;74700;43.228;0.108;2023-12-22T01:39:28;22.90;;;4.32;;
84476;SDS011;74700;43.228;0.108;2023-12-22T01:41:54;19.10;;;3.50;;
84476;SDS011;74700;43.228;0.108;2023-12-22T01:44:21;25.40;;;4.75;;
84476;SDS011;74700;43.228;0.108;2023-12-22T01:46:47;27.30;;;4.43;;
84476;SDS011;74700;43.228;0.108;2023-12-22T01:49:13;22.05;;;3.85;;
84476;SDS011;74700;43.228;0.108;2023-12-22T01:51:40;22.45;;;4.13;;
84476;SDS011;74700;43.228;0.108;2023-12-22T01:54:06;15.25;;;3.90;;
84476;SDS011;74700;43.228;0.108;2023-12-22T01:56:32;13.18;;;3.17;;
84476;SDS011;74700;43.228;0.108;2023-12-22T01:58:59;18.83;;;3.53;;
84476;SDS011;74700;43.228;0.108;2023-12-22T02:01:26;13.20;;;2.90;;
84476;SDS011;74700;43.228;0.108;2023-12-22T02:03:53;14.20;;;3.15;;
84476;SDS011;74700;43.228;0.108;2023-12-22T02:06:19;13.20;;;2.83;;
84476;SDS011;74700;43.228;0.108;2023-12-22T02:08:49;15.38;;;2.72;;
84476;SDS011;74700;43.228;0.108;2023-12-22T02:11:15;9.98;;;2.35;;
84476;SDS011;74700;43.228;0.108;2023-12-22T02:13:42;6.13;;;2.00;;
84476;SDS011;74700;43.228;0.108;2023-12-22T02:16:19;17.42;;;2.55;;
84476;SDS011;74700;43.228;0.108;2023-12-22T02:18:47;6.70;;;2.22;;
84476;SDS011;74700;43.228;0.108;2023-12-22T02:21:14;8.18;;;2.00;;
84476;SDS011;74700;43.228;0.108;2023-12-22T02:23:40;5.30;;;2.05;;
84476;SDS011;74700;43.228;0.108;2023-12-22T02:26:08;5.15;;;1.70;;
84476;SDS011;74700;43.228;0.108;2023-12-22T02:28:35;5.30;;;1.88;;
84476;SDS011;74700;43.228;0.108;2023-12-22T02:31:27;6.03;;;1.85;;
84476;SDS011;74700;43.228;0.108;2023-12-22T02:33:49;5.57;;;1.73;;
84476;SDS011;74700;43.228;0.108;2023-12-22T02:36:17;5.88;;;1.88;;
84476;SDS011;74700;43.228;0.108;2023-12-22T02:38:43;4.38;;;1.70;;
84476;SDS011;74700;43.228;0.108;2023-12-22T02:41:10;2.58;;;1.70;;
84476;SDS011;74700;43.228;0.108;2023-12-22T02:43:36;3.58;;;1.67;;
84476;SDS011;74700;43.228;0.108;2023-12-22T02:46:02;5.07;;;1.67;;
84476;SDS011;74700;43.228;0.108;2023-12-22T02:48:28;4.03;;;1.48;;
84476;SDS011;74700;43.228;0.108;2023-12-22T02:50:54;4.72;;;1.30;;
84476;SDS011;74700;43.228;0.108;2023-12-22T02:53:20;2.17;;;1.50;;
84476;SDS011;74700;43.228;0.108;2023-12-22T02:55:46;1.38;;;1.30;;
84476;SDS011;74700;43.228;0.108;2023-12-22T02:58:12;2.65;;;1.35;;
84476;SDS011;74700;43.228;0.108;2023-12-22T03:00:38;1.33;;;1.23;;
84476;SDS011;74700;43.228;0.108;2023-12-22T03:03:05;1.70;;;1.60;;
84476;SDS011;74700;43.228;0.108;2023-12-22T03:05:31;2.58;;;1.50;;
84476;SDS011;74700;43.228;0.108;2023-12-22T03:07:58;5.00;;;1.58;;
84476;SDS011;74700;43.228;0.108;2023-12-22T03:10:24;1.25;;;1.20;;
84476;SDS011;74700;43.228;0.108;2023-12-22T03:12:50;1.88;;;1.20;;
84476;SDS011;74700;43.228;0.108;2023-12-22T03:15:16;1.13;;;1.13;;
84476;SDS011;74700;43.228;0.108;2023-12-22T03:17:42;1.83;;;1.60;;
84476;SDS011;74700;43.228;0.108;2023-12-22T03:20:08;1.45;;;1.30;;
84476;SDS011;74700;43.228;0.108;2023-12-22T03:22:34;1.10;;;1.10;;
84476;SDS011;74700;43.228;0.108;2023-12-22T03:25:00;3.15;;;1.40;;
84476;SDS011;74700;43.228;0.108;2023-12-22T03:27:26;1.27;;;1.23;;
84476;SDS011;74700;43.228;0.108;2023-12-22T03:29:52;1.50;;;1.40;;
84476;SDS011;74700;43.228;0.108;2023-12-22T03:32:18;1.33;;;1.33;;
84476;SDS011;74700;43.228;0.108;2023-12-22T03:34:44;2.47;;;1.20;;
84476;SDS011;74700;43.228;0.108;2023-12-22T03:37:10;2.78;;;1.20;;
84476;SDS011;74700;43.228;0.108;2023-12-22T03:39:36;1.05;;;1.05;;
84476;SDS011;74700;43.228;0.108;2023-12-22T03:42:02;1.15;;;1.15;;
84476;SDS011;74700;43.228;0.108;2023-12-22T03:44:28;5.05;;;1.63;;
84476;SDS011;74700;43.228;0.108;2023-12-22T03:46:54;1.02;;;1.02;;
84476;SDS011;74700;43.228;0.108;2023-12-22T03:49:21;2.40;;;1.58;;
84476;SDS011;74700;43.228;0.108;2023-12-22T03:51:47;1.50;;;1.38;;
84476;SDS011;74700;43.228;0.108;2023-12-22T03:54:13;1.48;;;1.38;;
84476;SDS011;74700;43.228;0.108;2023-12-22T03:56:41;1.15;;;1.15;;
84476;SDS011;74700;43.228;0.108;2023-12-22T03:59:07;1.10;;;1.10;;
84476;SDS011;74700;43.228;0.108;2023-12-22T04:01:33;1.70;;;1.23;;
84476;SDS011;74700;43.228;0.108;2023-12-22T04:03:59;1.23;;;1.20;;
84476;SDS011;74700;43.228;0.108;2023-12-22T04:06:25;1.27;;;1.20;;
84476;SDS011;74700;43.228;0.108;2023-12-22T04:08:51;1.25;;;1.23;;
84476;SDS011;74700;43.228;0.108;2023-12-22T04:11:18;4.47;;;1.30;;
84476;SDS011;74700;43.228;0.108;2023-12-22T04:13:43;1.20;;;1.17;;
84476;SDS011;74700;43.228;0.108;2023-12-22T04:16:10;0.90;;;0.90;;
84476;SDS011;74700;43.228;0.108;2023-12-22T04:18:36;1.05;;;1.05;;
84476;SDS011;74700;43.228;0.108;2023-12-22T04:21:02;2.53;;;1.30;;
84476;SDS011;74700;43.228;0.108;2023-12-22T04:23:28;1.30;;;1.20;;
84476;SDS011;74700;43.228;0.108;2023-12-22T04:25:54;1.45;;;1.20;;
84476;SDS011;74700;43.228;0.108;2023-12-22T04:28:20;1.15;;;1.15;;
84476;SDS011;74700;43.228;0.108;2023-12-22T04:30:46;1.10;;;1.10;;
84476;SDS011;74700;43.228;0.108;2023-12-22T04:33:12;2.20;;;1.10;;
84476;SDS011;74700;43.228;0.108;2023-12-22T04:35:38;1.10;;;1.10;;
84476;SDS011;74700;43.228;0.108;2023-12-22T04:38:04;1.95;;;1.40;;
84476;SDS011;74700;43.228;0.108;2023-12-22T04:40:30;1.20;;;1.20;;
84476;SDS011;74700;43.228;0.108;2023-12-22T04:42:56;1.63;;;1.13;;
84476;SDS011;74700;43.228;0.108;2023-12-22T04:45:22;3.40;;;1.60;;
84476;SDS011;74700;43.228;0.108;2023-12-22T04:47:48;1.30;;;1.20;;
84476;SDS011;74700;43.228;0.108;2023-12-22T04:50:14;1.40;;;1.13;;
84476;SDS011;74700;43.228;0.108;2023-12-22T04:52:40;1.70;;;1.20;;
84476;SDS011;74700;43.228;0.108;2023-12-22T04:55:06;1.40;;;1.30;;
84476;SDS011;74700;43.228;0.108;2023-12-22T04:57:32;1.20;;;1.15;;
84476;SDS011;74700;43.228;0.108;2023-12-22T04:59:58;1.98;;;1.20;;
84476;SDS011;74700;43.228;0.108;2023-12-22T05:02:24;1.40;;;1.30;;
84476;SDS011;74700;43.228;0.108;2023-12-22T05:04:50;1.17;;;1.08;;
84476;SDS011;74700;43.228;0.108;2023-12-22T05:07:16;1.30;;;1.30;;
84476;SDS011;74700;43.228;0.108;2023-12-22T05:09:42;2.03;;;1.15;;
84476;SDS011;74700;43.228;0.108;2023-12-22T05:12:08;1.40;;;1.30;;
84476;SDS011;74700;43.228;0.108;2023-12-22T05:14:34;1.25;;;1.25;;
84476;SDS011;74700;43.228;0.108;2023-12-22T05:17:00;4.78;;;1.20;;
84476;SDS011;74700;43.228;0.108;2023-12-22T05:19:26;1.00;;;1.00;;
84476;SDS011;74700;43.228;0.108;2023-12-22T05:21:52;1.10;;;1.10;;
84476;SDS011;74700;43.228;0.108;2023-12-22T05:24:21;1.15;;;1.15;;
84476;SDS011;74700;43.228;0.108;2023-12-22T05:26:47;1.50;;;1.40;;
84476;SDS011;74700;43.228;0.108;2023-12-22T05:29:13;1.10;;;1.10;;
84476;SDS011;74700;43.228;0.108;2023-12-22T05:31:39;1.38;;;1.27;;
84476;SDS011;74700;43.228;0.108;2023-12-22T05:34:05;1.42;;;1.40;;
84476;SDS011;74700;43.228;0.108;2023-12-22T05:36:31;1.65;;;1.20;;
84476;SDS011;74700;43.228;0.108;2023-12-22T05:38:57;1.65;;;1.10;;
84476;SDS011;74700;43.228;0.108;2023-12-22T05:41:23;3.20;;;1.13;;
84476;SDS011;74700;43.228;0.108;2023-12-22T05:43:49;1.00;;;1.00;;
84476;SDS011;74700;43.228;0.108;2023-12-22T05:46:15;1.10;;;1.10;;
84476;SDS011;74700;43.228;0.108;2023-12-22T05:48:41;0.90;;;0.90;;
84476;SDS011;74700;43.228;0.108;2023-12-22T05:51:07;0.90;;;0.90;;
84476;SDS011;74700;43.228;0.108;2023-12-22T05:53:38;1.27;;;1.13;;
84476;SDS011;74700;43.228;0.108;2023-12-22T05:56:05;0.95;;;0.95;;
84476;SDS011;74700;43.228;0.108;2023-12-22T05:58:31;0.85;;;0.85;;
84476;SDS011;74700;43.228;0.108;2023-12-22T06:00:57;1.13;;;0.90;;
84476;SDS011;74700;43.228;0.108;2023-12-22T06:03:23;0.98;;;0.98;;
84476;SDS011;74700;43.228;0.108;2023-12-22T06:05:49;1.25;;;1.00;;
84476;SDS011;74700;43.228;0.108;2023-12-22T06:08:15;1.33;;;1.23;;
84476;SDS011;74700;43.228;0.108;2023-12-22T06:10:41;1.67;;;1.58;;
84476;SDS011;74700;43.228;0.108;2023-12-22T06:13:07;1.10;;;1.00;;
84476;SDS011;74700;43.228;0.108;2023-12-22T06:15:33;1.13;;;1.13;;
84476;SDS011;74700;43.228;0.108;2023-12-22T06:17:59;1.10;;;1.10;;
84476;SDS011;74700;43.228;0.108;2023-12-22T06:20:25;2.05;;;1.20;;
84476;SDS011;74700;43.228;0.108;2023-12-22T06:22:51;1.08;;;1.08;;
84476;SDS011;74700;43.228;0.108;2023-12-22T06:25:17;1.25;;;1.20;;
84476;SDS011;74700;43.228;0.108;2023-12-22T06:27:45;1.30;;;1.20;;
84476;SDS011;74700;43.228;0.108;2023-12-22T06:30:11;2.05;;;1.45;;
84476;SDS011;74700;43.228;0.108;2023-12-22T06:32:37;3.17;;;1.60;;
84476;SDS011;74700;43.228;0.108;2023-12-22T06:35:05;1.95;;;1.17;;
84476;SDS011;74700;43.228;0.108;2023-12-22T06:37:31;2.60;;;1.35;;
84476;SDS011;74700;43.228;0.108;2023-12-22T06:39:57;2.13;;;1.20;;
84476;SDS011;74700;43.228;0.108;2023-12-22T06:42:23;1.35;;;1.30;;
84476;SDS011;74700;43.228;0.108;2023-12-22T06:44:49;1.38;;;1.25;;
84476;SDS011;74700;43.228;0.108;2023-12-22T06:47:15;1.10;;;1.10;;
84476;SDS011;74700;43.228;0.108;2023-12-22T06:49:41;0.80;;;0.80;;
84476;SDS011;74700;43.228;0.108;2023-12-22T06:52:08;1.20;;;1.20;;
84476;SDS011;74700;43.228;0.108;2023-12-22T06:54:34;1.10;;;1.10;;
84476;SDS011;74700;43.228;0.108;2023-12-22T06:57:00;1.00;;;1.00;;
84476;SDS011;74700;43.228;0.108;2023-12-22T06:59:26;5.10;;;1.30;;
84476;SDS011;74700;43.228;0.108;2023-12-22T07:01:52;1.30;;;1.30;;
84476;SDS011;74700;43.228;0.108;2023-12-22T07:04:18;1.20;;;1.20;;
84476;SDS011;74700;43.228;0.108;2023-12-22T07:06:44;1.23;;;1.20;;
84476;SDS011;74700;43.228;0.108;2023-12-22T07:11:45;1.25;;;1.23;;
84476;SDS011;74700;43.228;0.108;2023-12-22T07:14:11;0.98;;;0.98;;
84476;SDS011;74700;43.228;0.108;2023-12-22T07:16:37;1.58;;;1.20;;
84476;SDS011;74700;43.228;0.108;2023-12-22T07:19:04;1.33;;;1.25;;
84476;SDS011;74700;43.228;0.108;2023-12-22T07:21:30;4.35;;;1.40;;
84476;SDS011;74700;43.228;0.108;2023-12-22T07:23:56;1.27;;;1.27;;
84476;SDS011;74700;43.228;0.108;2023-12-22T07:26:26;0.95;;;0.95;;
84476;SDS011;74700;43.228;0.108;2023-12-22T07:28:52;1.67;;;1.58;;
84476;SDS011;74700;43.228;0.108;2023-12-22T07:31:18;1.00;;;1.00;;
84476;SDS011;74700;43.228;0.108;2023-12-22T07:33:44;1.10;;;1.10;;
84476;SDS011;74700;43.228;0.108;2023-12-22T07:36:10;2.25;;;1.40;;
84476;SDS011;74700;43.228;0.108;2023-12-22T07:38:37;1.25;;;1.25;;
84476;SDS011;74700;43.228;0.108;2023-12-22T07:41:06;1.10;;;1.10;;
84476;SDS011;74700;43.228;0.108;2023-12-22T07:43:32;1.63;;;1.52;;
84476;SDS011;74700;43.228;0.108;2023-12-22T07:45:58;1.20;;;1.20;;
84476;SDS011;74700;43.228;0.108;2023-12-22T07:48:24;1.20;;;1.20;;
84476;SDS011;74700;43.228;0.108;2023-12-22T07:50:50;1.38;;;1.23;;
84476;SDS011;74700;43.228;0.108;2023-12-22T07:53:16;1.10;;;1.10;;
84476;SDS011;74700;43.228;0.108;2023-12-22T07:55:45;1.60;;;1.50;;
84476;SDS011;74700;43.228;0.108;2023-12-22T07:58:12;1.20;;;1.17;;
84476;SDS011;74700;43.228;0.108;2023-12-22T08:00:38;3.35;;;1.35;;
84476;SDS011;74700;43.228;0.108;2023-12-22T08:03:04;2.13;;;1.23;;
84476;SDS011;74700;43.228;0.108;2023-12-22T08:05:30;2.38;;;1.13;;
84476;SDS011;74700;43.228;0.108;2023-12-22T08:07:56;1.70;;;1.17;;
84476;SDS011;74700;43.228;0.108;2023-12-22T08:10:22;1.40;;;1.30;;
84476;SDS011;74700;43.228;0.108;2023-12-22T08:12:48;1.30;;;1.20;;
84476;SDS011;74700;43.228;0.108;2023-12-22T08:15:14;1.38;;;1.30;;
84476;SDS011;74700;43.228;0.108;2023-12-22T08:17:47;1.33;;;1.23;;
84476;SDS011;74700;43.228;0.108;2023-12-22T08:20:16;8.25;;;1.48;;
84476;SDS011;74700;43.228;0.108;2023-12-22T08:22:44;4.10;;;1.40;;
84476;SDS011;74700;43.228;0.108;2023-12-22T08:25:10;2.67;;;1.42;;
84476;SDS011;74700;43.228;0.108;2023-12-22T08:27:36;2.20;;;1.35;;
84476;SDS011;74700;43.228;0.108;2023-12-22T08:30:02;2.83;;;1.63;;
84476;SDS011;74700;43.228;0.108;2023-12-22T08:32:28;3.95;;;1.70;;
84476;SDS011;74700;43.228;0.108;2023-12-22T08:34:54;1.92;;;1.50;;
84476;SDS011;74700;43.228;0.108;2023-12-22T08:37:20;3.22;;;1.83;;
84476;SDS011;74700;43.228;0.108;2023-12-22T08:39:46;2.08;;;1.58;;
84476;SDS011;74700;43.228;0.108;2023-12-22T08:42:12;2.92;;;1.48;;
84476;SDS011;74700;43.228;0.108;2023-12-22T08:44:38;2.83;;;1.60;;
84476;SDS011;74700;43.228;0.108;2023-12-22T08:47:04;2.08;;;1.20;;
84476;SDS011;74700;43.228;0.108;2023-12-22T08:49:30;1.17;;;1.17;;
84476;SDS011;74700;43.228;0.108;2023-12-22T08:51:56;2.13;;;1.50;;
84476;SDS011;74700;43.228;0.108;2023-12-22T08:54:22;1.17;;;1.15;;
84476;SDS011;74700;43.228;0.108;2023-12-22T08:56:48;1.95;;;1.80;;
84476;SDS011;74700;43.228;0.108;2023-12-22T08:59:14;2.63;;;1.73;;
84476;SDS011;74700;43.228;0.108;2023-12-22T09:01:40;2.50;;;1.55;;
84476;SDS011;74700;43.228;0.108;2023-12-22T09:04:07;4.25;;;1.48;;
84476;SDS011;74700;43.228;0.108;2023-12-22T09:06:35;3.15;;;1.65;;
84476;SDS011;74700;43.228;0.108;2023-12-22T09:09:01;3.13;;;1.40;;
84476;SDS011;74700;43.228;0.108;2023-12-22T09:11:28;3.45;;;1.80;;
84476;SDS011;74700;43.228;0.108;2023-12-22T09:13:54;2.05;;;1.42;;
84476;SDS011;74700;43.228;0.108;2023-12-22T09:16:21;4.30;;;1.50;;
84476;SDS011;74700;43.228;0.108;2023-12-22T09:18:48;2.95;;;1.30;;
84476;SDS011;74700;43.228;0.108;2023-12-22T09:21:14;3.45;;;1.80;;
84476;SDS011;74700;43.228;0.108;2023-12-22T09:23:42;6.22;;;1.77;;
84476;SDS011;74700;43.228;0.108;2023-12-22T09:26:10;2.80;;;1.75;;
84476;SDS011;74700;43.228;0.108;2023-12-22T09:28:36;4.50;;;1.90;;
84476;SDS011;74700;43.228;0.108;2023-12-22T09:31:03;6.75;;;2.47;;
84476;SDS011;74700;43.228;0.108;2023-12-22T09:33:30;5.05;;;2.10;;
84476;SDS011;74700;43.228;0.108;2023-12-22T09:35:56;3.17;;;1.52;;
84476;SDS011;74700;43.228;0.108;2023-12-22T09:38:22;5.60;;;1.48;;
84476;SDS011;74700;43.228;0.108;2023-12-22T09:40:49;4.32;;;1.40;;
84476;SDS011;74700;43.228;0.108;2023-12-22T09:43:15;4.97;;;2.67;;
84476;SDS011;74700;43.228;0.108;2023-12-22T09:45:43;2.60;;;2.00;;
84476;SDS011;74700;43.228;0.108;2023-12-22T09:48:10;2.15;;;1.65;;
84476;SDS011;74700;43.228;0.108;2023-12-22T09:50:38;4.35;;;1.80;;
84476;SDS011;74700;43.228;0.108;2023-12-22T09:53:04;2.40;;;1.55;;
84476;SDS011;74700;43.228;0.108;2023-12-22T09:55:31;2.10;;;1.50;;
84476;SDS011;74700;43.228;0.108;2023-12-22T09:57:57;1.67;;;1.58;;
84476;SDS011;74700;43.228;0.108;2023-12-22T10:00:24;3.55;;;1.60;;
84476;SDS011;74700;43.228;0.108;2023-12-22T10:02:52;3.20;;;1.55;;
84476;SDS011;74700;43.228;0.108;2023-12-22T10:05:18;5.32;;;1.98;;
84476;SDS011;74700;43.228;0.108;2023-12-22T10:07:44;2.88;;;1.50;;
84476;SDS011;74700;43.228;0.108;2023-12-22T10:10:11;1.63;;;1.45;;
84476;SDS011;74700;43.228;0.108;2023-12-22T10:12:40;2.05;;;1.40;;
84476;SDS011;74700;43.228;0.108;2023-12-22T10:15:07;4.43;;;1.50;;
84476;SDS011;74700;43.228;0.108;2023-12-22T10:17:35;1.48;;;1.48;;
84476;SDS011;74700;43.228;0.108;2023-12-22T10:20:01;1.90;;;1.58;;
84476;SDS011;74700;43.228;0.108;2023-12-22T10:22:28;1.40;;;1.23;;
84476;SDS011;74700;43.228;0.108;2023-12-22T10:24:54;3.55;;;1.52;;
84476;SDS011;74700;43.228;0.108;2023-12-22T10:27:20;1.48;;;1.35;;
84476;SDS011;74700;43.228;0.108;2023-12-22T10:29:56;2.17;;;1.40;;
84476;SDS011;74700;43.228;0.108;2023-12-22T10:32:22;1.63;;;1.40;;
84476;SDS011;74700;43.228;0.108;2023-12-22T10:34:50;2.20;;;1.52;;
84476;SDS011;74700;43.228;0.108;2023-12-22T10:37:17;1.35;;;1.30;;
84476;SDS011;74700;43.228;0.108;2023-12-22T10:39:43;1.63;;;1.40;;
84476;SDS011;74700;43.228;0.108;2023-12-22T10:42:13;1.50;;;1.40;;
84476;SDS011;74700;43.228;0.108;2023-12-22T10:44:39;1.98;;;1.73;;
84476;SDS011;74700;43.228;0.108;2023-12-22T10:47:06;1.60;;;1.50;;
84476;SDS011;74700;43.228;0.108;2023-12-22T10:49:33;1.67;;;1.58;;
84476;SDS011;74700;43.228;0.108;2023-12-22T10:51:59;1.42;;;1.42;;
84476;SDS011;74700;43.228;0.108;2023-12-22T10:54:25;1.20;;;1.20;;
84476;SDS011;74700;43.228;0.108;2023-12-22T10:56:52;1.50;;;1.30;;
84476;SDS011;74700;43.228;0.108;2023-12-22T10:59:18;3.42;;;1.67;;
84476;SDS011;74700;43.228;0.108;2023-12-22T11:01:44;1.40;;;1.30;;
84476;SDS011;74700;43.228;0.108;2023-12-22T11:04:13;1.50;;;1.40;;
84476;SDS011;74700;43.228;0.108;2023-12-22T11:06:39;2.15;;;1.73;;
84476;SDS011;74700;43.228;0.108;2023-12-22T11:09:08;1.35;;;1.30;;
84476;SDS011;74700;43.228;0.108;2023-12-22T11:11:34;1.40;;;1.40;;
84476;SDS011;74700;43.228;0.108;2023-12-22T11:14:01;1.50;;;1.30;;
84476;SDS011;74700;43.228;0.108;2023-12-22T11:16:27;1.73;;;1.45;;
84476;SDS011;74700;43.228;0.108;2023-12-22T11:18:54;1.40;;;1.30;;
84476;SDS011;74700;43.228;0.108;2023-12-22T11:21:21;1.35;;;1.27;;
84476;SDS011;74700;43.228;0.108;2023-12-22T11:23:49;1.90;;;1.30;;
84476;SDS011;74700;43.228;0.108;2023-12-22T11:26:17;1.40;;;1.30;;
84476;SDS011;74700;43.228;0.108;2023-12-22T11:28:44;1.85;;;1.40;;
84476;SDS011;74700;43.228;0.108;2023-12-22T11:31:11;1.50;;;1.40;;
84476;SDS011;74700;43.228;0.108;2023-12-22T11:33:39;1.40;;;1.30;;
84476;SDS011;74700;43.228;0.108;2023-12-22T11:36:06;2.42;;;1.40;;
84476;SDS011;74700;43.228;0.108;2023-12-22T11:38:32;2.90;;;1.38;;
84476;SDS011;74700;43.228;0.108;2023-12-22T11:40:59;1.23;;;1.23;;
84476;SDS011;74700;43.228;0.108;2023-12-22T11:43:26;1.45;;;1.30;;
84476;SDS011;74700;43.228;0.108;2023-12-22T11:45:52;1.85;;;1.55;;
84476;SDS011;74700;43.228;0.108;2023-12-22T11:48:18;2.13;;;1.33;;
84476;SDS011;74700;43.228;0.108;2023-12-22T11:50:45;2.38;;;1.50;;
84476;SDS011;74700;43.228;0.108;2023-12-22T11:53:18;1.60;;;1.50;;
84476;SDS011;74700;43.228;0.108;2023-12-22T11:59:05;1.77;;;1.60;;
84476;SDS011;74700;43.228;0.108;2023-12-22T12:01:20;1.30;;;1.20;;
84476;SDS011;74700;43.228;0.108;2023-12-22T12:06:37;1.40;;;1.33;;
84476;SDS011;74700;43.228;0.108;2023-12-22T12:09:04;1.20;;;1.20;;
84476;SDS011;74700;43.228;0.108;2023-12-22T12:14:15;1.67;;;1.40;;
84476;SDS011;74700;43.228;0.108;2023-12-22T12:16:43;4.05;;;1.50;;
84476;SDS011;74700;43.228;0.108;2023-12-22T12:19:09;3.65;;;1.38;;
84476;SDS011;74700;43.228;0.108;2023-12-22T12:21:35;1.40;;;1.30;;
84476;SDS011;74700;43.228;0.108;2023-12-22T12:24:01;3.33;;;1.80;;
84476;SDS011;74700;43.228;0.108;2023-12-22T12:26:30;1.50;;;1.50;;
84476;SDS011;74700;43.228;0.108;2023-12-22T12:28:56;7.15;;;1.55;;
84476;SDS011;74700;43.228;0.108;2023-12-22T12:31:26;4.07;;;1.40;;
84476;SDS011;74700;43.228;0.108;2023-12-22T12:34:02;2.60;;;1.45;;
84476;SDS011;74700;43.228;0.108;2023-12-22T12:36:29;1.40;;;1.40;;
84476;SDS011;74700;43.228;0.108;2023-12-22T12:38:55;4.15;;;1.48;;
84476;SDS011;74700;43.228;0.108;2023-12-22T12:41:35;3.42;;;1.90;;
84476;SDS011;74700;43.228;0.108;2023-12-22T12:44:03;1.42;;;1.33;;
84476;SDS011;74700;43.228;0.108;2023-12-22T12:46:36;1.70;;;1.60;;
84476;SDS011;74700;43.228;0.108;2023-12-22T12:49:06;1.77;;;1.50;;
84476;SDS011;74700;43.228;0.108;2023-12-22T12:51:36;1.70;;;1.52;;
84476;SDS011;74700;43.228;0.108;2023-12-22T12:54:03;1.10;;;1.10;;
84476;SDS011;74700;43.228;0.108;2023-12-22T12:56:29;4.32;;;1.30;;
84476;SDS011;74700;43.228;0.108;2023-12-22T12:59:01;3.15;;;1.35;;
84476;SDS011;74700;43.228;0.108;2023-12-22T13:01:27;1.50;;;1.40;;
84476;SDS011;74700;43.228;0.108;2023-12-22T13:03:56;1.35;;;1.20;;
84476;SDS011;74700;43.228;0.108;2023-12-22T13:06:23;1.40;;;1.40;;
84476;SDS011;74700;43.228;0.108;2023-12-22T13:08:49;2.90;;;1.52;;
84476;SDS011;74700;43.228;0.108;2023-12-22T13:11:20;2.42;;;2.20;;
84476;SDS011;74700;43.228;0.108;2023-12-22T13:13:46;1.10;;;1.10;;
84476;SDS011;74700;43.228;0.108;2023-12-22T13:16:12;2.05;;;1.67;;
84476;SDS011;74700;43.228;0.108;2023-12-22T13:18:38;2.00;;;1.33;;
84476;SDS011;74700;43.228;0.108;2023-12-22T13:21:05;1.20;;;1.20;;
84476;SDS011;74700;43.228;0.108;2023-12-22T13:23:31;0.90;;;0.90;;
84476;SDS011;74700;43.228;0.108;2023-12-22T13:25:58;1.63;;;1.38;;
84476;SDS011;74700;43.228;0.108;2023-12-22T13:28:25;1.50;;;1.40;;
84476;SDS011;74700;43.228;0.108;2023-12-22T13:30:52;1.45;;;1.45;;
84476;SDS011;74700;43.228;0.108;2023-12-22T13:33:18;6.32;;;1.50;;
84476;SDS011;74700;43.228;0.108;2023-12-22T13:35:44;3.53;;;1.48;;
84476;SDS011;74700;43.228;0.108;2023-12-22T13:38:12;3.17;;;1.25;;
84476;SDS011;74700;43.228;0.108;2023-12-22T13:40:38;1.15;;;1.00;;
84476;SDS011;74700;43.228;0.108;2023-12-22T13:43:04;3.05;;;1.50;;
84476;SDS011;74700;43.228;0.108;2023-12-22T13:45:32;1.50;;;1.40;;
84476;SDS011;74700;43.228;0.108;2023-12-22T13:47:58;3.17;;;1.42;;
84476;SDS011;74700;43.228;0.108;2023-12-22T13:50:24;1.63;;;1.52;;
84476;SDS011;74700;43.228;0.108;2023-12-22T13:52:50;1.80;;;1.65;;
84476;SDS011;74700;43.228;0.108;2023-12-22T13:55:17;1.60;;;1.50;;
84476;SDS011;74700;43.228;0.108;2023-12-22T13:57:44;1.42;;;1.30;;
84476;SDS011;74700;43.228;0.108;2023-12-22T14:02:42;4.03;;;1.27;;
84476;SDS011;74700;43.228;0.108;2023-12-22T14:05:08;1.00;;;1.00;;
84476;SDS011;74700;43.228;0.108;2023-12-22T14:07:34;1.60;;;1.50;;
84476;SDS011;74700;43.228;0.108;2023-12-22T14:10:09;1.25;;;1.25;;
84476;SDS011;74700;43.228;0.108;2023-12-22T14:12:36;1.23;;;1.23;;
84476;SDS011;74700;43.228;0.108;2023-12-22T14:15:08;1.30;;;1.20;;
84476;SDS011;74700;43.228;0.108;2023-12-22T14:17:35;1.63;;;1.50;;
84476;SDS011;74700;43.228;0.108;2023-12-22T14:20:01;1.40;;;1.35;;
84476;SDS011;74700;43.228;0.108;2023-12-22T14:22:27;1.00;;;1.00;;
84476;SDS011;74700;43.228;0.108;2023-12-22T14:24:53;1.00;;;1.00;;
84476;SDS011;74700;43.228;0.108;2023-12-22T14:27:19;3.35;;;1.60;;
84476;SDS011;74700;43.228;0.108;2023-12-22T14:29:45;1.75;;;1.45;;
84476;SDS011;74700;43.228;0.108;2023-12-22T14:32:11;1.50;;;1.40;;
84476;SDS011;74700;43.228;0.108;2023-12-22T14:34:39;2.35;;;1.50;;
84476;SDS011;74700;43.228;0.108;2023-12-22T14:37:05;3.35;;;1.88;;
84476;SDS011;74700;43.228;0.108;2023-12-22T14:39:31;1.70;;;1.60;;
84476;SDS011;74700;43.228;0.108;2023-12-22T14:41:58;3.72;;;1.80;;
84476;SDS011;74700;43.228;0.108;2023-12-22T14:44:24;4.47;;;2.10;;
84476;SDS011;74700;43.228;0.108;2023-12-22T14:46:50;4.57;;;1.70;;
84476;SDS011;74700;43.228;0.108;2023-12-22T14:49:17;1.80;;;1.70;;
84476;SDS011;74700;43.228;0.108;2023-12-22T14:51:44;3.83;;;1.83;;
84476;SDS011;74700;43.228;0.108;2023-12-22T14:54:16;1.88;;;1.30;;
84476;SDS011;74700;43.228;0.108;2023-12-22T14:56:42;2.45;;;1.20;;